Flight Track Log - Related Links

Times and Time Zones

All times are in EDT time to prevent confusion due to time zone crossing. See the RPA3380 flight status page for this flight to view local times or setup timezone preferences in your user account.

Time Position Orientation Groundspeed Altitude Reporting Facility
EDT Latitude Longitude Course Direction KTS MPH feet Rate Location/Type
Mon 05:11:08 PM 39.8667 -75.2833 282° West 156 180 800  Level Philadelphia TRACON
Mon 05:13:24 PM 39.8517 -75.4542 264° West 229 264 5,800 2,357 Climbing New York Center
Mon 05:14:00 PM 39.9385 -75.6985 270° West  Level Estimated
Mon 05:14:24 PM 39.8736 -75.5314 290° West 242 278 8,500  Level New York Center
Mon 05:15:00 PM 39.9547 -75.8131 270° West  Level Estimated
Mon 05:15:24 PM 39.9069 -75.6367 292° West 273 314 10,700  Level New York Center
Mon 05:16:00 PM 39.9709 -75.9277 282° West  Level Estimated
Mon 05:20:37 PM 39.9120 -76.2730 292° West 100 115 19,100  Level FlightAware ADS-B
Mon 05:21:13 PM 39.9150 -76.3550 273° West 372 428 19,900 667 Climbing FlightAware ADS-B
Mon 05:21:58 PM 39.9180 -76.4410 273° West 372 428 20,000 74 Climbing FlightAware ADS-B
Mon 05:22:34 PM 39.9210 -76.5100 273° West 372 428 20,000  Level FlightAware ADS-B
Mon 05:23:11 PM 39.9240 -76.5800 273° West 372 428 20,000  Level FlightAware ADS-B
Mon 05:23:47 PM 39.9260 -76.6490 272° West 372 428 20,000  Level FlightAware ADS-B
Mon 05:24:23 PM 39.9290 -76.7170 273° West 372 428 20,000  Level FlightAware ADS-B
Mon 05:24:59 PM 39.9320 -76.7860 273° West 372 428 20,000 1,062 Level FlightAware ADS-B
Mon 05:26:16 PM 39.9453 -77.1281 273° West 402 463 22,000 863 Climbing Cleveland Center
Mon 05:27:18 PM 39.9489 -77.2744 272° West 405 466 22,000  Level Cleveland Center
Mon 05:28:20 PM 39.9544 -77.4178 273° West 401 461 22,000  Level Cleveland Center
Mon 05:29:22 PM 39.9589 -77.5633 272° West 403 464 22,000  Level Cleveland Center
Mon 05:30:24 PM 39.9622 -77.7078 272° West 402 463 22,000  Level Cleveland Center
Mon 05:31:27 PM 39.9683 -77.8825 273° West 403 464 22,000  Level Cleveland Center
Mon 05:32:29 PM 39.9711 -78.0286 271° West 404 465 22,000  Level Cleveland Center
Mon 05:33:31 PM 39.9864 -78.1708 278° West 401 461 22,000  Level Cleveland Center
Mon 05:34:33 PM 40.0083 -78.3214 281° West 396 456 22,000  Level Cleveland Center
Mon 05:35:35 PM 40.0292 -78.4592 281° West 391 450 22,000  Level Cleveland Center
Mon 05:36:37 PM 40.0492 -78.5994 281° West 391 450 22,000  Level Cleveland Center
Mon 05:37:39 PM 40.0678 -78.7431 280° West 398 458 22,000 -145 Level Cleveland Center
Mon 05:38:41 PM 40.0917 -78.9161 280° West 403 464 21,700 -1,161 Descending Cleveland Center
Mon 05:39:43 PM 40.1114 -79.0611 280° West 407 468 19,600 -1,935 Descending Cleveland Center
Mon 05:40:45 PM 40.1292 -79.1961 280° West 389 448 17,700 -1,887 Descending Cleveland Center
Mon 05:41:47 PM 40.1464 -79.3289 280° West 377 434 15,700 -1,872 Descending Cleveland Center
Mon 05:42:50 PM 40.1622 -79.4586 279° West 365 420 13,800 -1,776 Descending Cleveland Center
Mon 05:43:52 PM 40.1794 -79.5797 281° West 346 398 12,000 -1,742 Descending Cleveland Center
Mon 05:44:54 PM 40.1981 -79.6953 282° West 327 376 10,200 -1,500 Descending Cleveland Center
Mon 05:45:56 PM 40.2700 -79.7814 318° Northwest 283 326 8,900 -1,500 Descending Cleveland Center
Mon 05:46:58 PM 40.3281 -79.8475 319° Northwest 278 320 7,100 -1,645 Descending Cleveland Center
Mon 05:48:00 PM 40.3822 -79.9083 319° Northwest 259 298 5,500 -1,452 Descending Cleveland Center
Mon 05:49:02 PM 40.4331 -79.9683 318° Northwest 252 290 4,100 -871 Descending Cleveland Center
Mon 05:50:04 PM 40.4808 -80.0356 313° West 231 266 3,700 -677 Descending Cleveland Center
Mon 05:51:06 PM 40.4806 -80.1058 270° West 208 239 2,700 -871 Descending Cleveland Center
Mon 05:52:08 PM 40.4839 -80.1594 275° West 171 197 1,900 -774 Descending Cleveland Center

Login

Don't have an account? Register now (free) for customized features, flight alerts, and more!